createdAt,value
2017-11-18T00:00:51.754Z,55.83
2017-11-18T00:03:19.319Z,55.80
2017-11-18T00:05:47.654Z,59.07
2017-11-18T00:08:15.246Z,73.43
2017-11-18T00:10:42.806Z,60.47
2017-11-18T00:13:10.374Z,62.40
2017-11-18T00:15:38.720Z,59.60
2017-11-18T00:18:06.275Z,59.57
2017-11-18T00:20:33.830Z,57.90
2017-11-18T00:23:01.384Z,68.13
2017-11-18T00:25:28.956Z,62.70
2017-11-18T00:27:56.518Z,60.17
2017-11-18T00:30:24.080Z,62.93
2017-11-18T00:32:52.408Z,60.97
2017-11-18T00:35:20.746Z,61.80
2017-11-18T00:37:48.361Z,57.07
2017-11-18T00:40:15.930Z,57.20
2017-11-18T00:42:43.501Z,70.13
2017-11-18T00:45:11.060Z,61.67
2017-11-18T00:47:38.651Z,66.50
2017-11-18T00:50:06.223Z,60.43
2017-11-18T00:52:33.793Z,62.30
2017-11-18T00:55:01.349Z,67.57
2017-11-18T00:57:28.920Z,64.80
2017-11-18T00:59:57.269Z,61.08
2017-11-18T01:02:24.910Z,63.55
2017-11-18T01:04:52.484Z,66.45
2017-11-18T01:07:20.047Z,60.10
2017-11-18T01:09:47.647Z,64.40
2017-11-18T01:12:15.966Z,66.33
2017-11-18T01:14:43.544Z,66.63
2017-11-18T01:17:11.109Z,59.85
2017-11-18T01:19:38.705Z,60.08
2017-11-18T01:22:07.027Z,60.05
2017-11-18T01:24:34.610Z,66.73
2017-11-18T01:27:02.169Z,66.50
2017-11-18T01:29:29.729Z,57.30
2017-11-18T01:31:57.371Z,60.30
2017-11-18T01:34:24.916Z,65.90
2017-11-18T01:36:52.506Z,59.23
2017-11-18T01:39:20.099Z,66.07
2017-11-18T01:41:47.671Z,62.67
2017-11-18T01:44:16.010Z,66.70
2017-11-18T01:46:43.589Z,62.33
2017-11-18T01:49:11.185Z,59.50
2017-11-18T01:51:38.725Z,62.07
2017-11-18T01:54:07.089Z,65.75
2017-11-18T01:56:35.435Z,62.58
2017-11-18T01:59:02.985Z,70.37
2017-11-18T02:01:30.590Z,66.07
2017-11-18T02:03:58.135Z,72.82
2017-11-18T02:06:26.559Z,64.60
2017-11-18T02:08:54.898Z,69.68
2017-11-18T02:11:22.495Z,67.50
2017-11-18T02:13:50.842Z,67.18
2017-11-18T02:16:18.412Z,59.88
2017-11-18T02:18:45.979Z,67.62
2017-11-18T02:21:14.327Z,57.50
2017-11-18T02:23:42.673Z,64.93
2017-11-18T02:26:10.278Z,62.65
2017-11-18T02:28:37.832Z,65.10
2017-11-18T02:31:05.426Z,66.07
2017-11-18T02:33:33.949Z,61.92
2017-11-18T02:36:01.599Z,71.90
2017-11-18T02:38:29.208Z,62.78
2017-11-18T02:40:56.787Z,65.47
2017-11-18T02:43:25.137Z,62.72
2017-11-18T02:45:52.759Z,68.15
2017-11-18T02:48:20.333Z,66.05
2017-11-18T02:50:47.956Z,65.57
2017-11-18T02:53:16.306Z,58.55
2017-11-18T02:55:43.929Z,59.95
2017-11-18T02:58:11.500Z,56.53
2017-11-18T03:00:39.838Z,59.92
2017-11-18T03:03:08.187Z,58.83
2017-11-18T03:05:35.773Z,56.28
2017-11-18T03:08:03.348Z,63.22
2017-11-18T03:10:30.961Z,56.80
2017-11-18T03:12:58.545Z,58.58
2017-11-18T03:15:26.128Z,62.62
2017-11-18T03:17:53.715Z,61.15
2017-11-18T03:20:21.277Z,56.13
2017-11-18T03:22:48.840Z,61.20
2017-11-18T03:25:16.415Z,71.62
2017-11-18T03:27:43.982Z,54.80
2017-11-18T03:30:11.578Z,62.55
2017-11-18T03:32:39.928Z,56.45
2017-11-18T03:35:07.495Z,61.67
2017-11-18T03:37:35.838Z,58.28
2017-11-18T03:40:03.440Z,61.88
2017-11-18T03:42:31.019Z,59.15
2017-11-18T03:44:58.610Z,64.80
2017-11-18T03:47:26.962Z,68.80
2017-11-18T03:49:54.513Z,62.97
2017-11-18T03:52:22.063Z,69.00
2017-11-18T03:54:49.625Z,61.10
2017-11-18T03:57:17.219Z,65.43
2017-11-18T03:59:44.811Z,62.50
2017-11-18T04:02:13.137Z,71.85
2017-11-18T04:04:40.716Z,74.07
2017-11-18T04:07:08.285Z,71.97
2017-11-18T04:09:35.867Z,69.15
2017-11-18T04:12:04.185Z,66.80
2017-11-18T04:14:31.779Z,78.87
2017-11-18T04:16:59.343Z,75.32
2017-11-18T04:19:26.929Z,78.78
2017-11-18T04:21:55.246Z,76.30
2017-11-18T04:24:22.840Z,72.70
2017-11-18T04:26:50.441Z,78.35
2017-11-18T04:29:18.010Z,85.03
2017-11-18T04:31:45.559Z,79.43
2017-11-18T04:34:13.140Z,77.47
2017-11-18T04:36:40.708Z,83.25
2017-11-18T04:39:08.278Z,80.28
2017-11-18T04:41:35.866Z,74.47
2017-11-18T04:44:03.475Z,76.85
2017-11-18T04:46:31.067Z,82.07
2017-11-18T04:48:58.644Z,76.45
2017-11-18T04:51:26.236Z,76.93
2017-11-18T04:53:54.572Z,71.95
2017-11-18T04:56:22.128Z,79.80
2017-11-18T04:58:49.725Z,77.05
2017-11-18T05:01:18.059Z,72.93
2017-11-18T05:03:45.630Z,75.53
2017-11-18T05:06:13.199Z,79.97
2017-11-18T05:08:40.818Z,76.12
2017-11-18T05:11:08.372Z,73.62
2017-11-18T05:13:35.950Z,74.65
2017-11-18T05:16:03.556Z,74.12
2017-11-18T05:18:31.162Z,76.55
2017-11-18T05:20:58.756Z,75.62
2017-11-18T05:23:26.302Z,74.60
2017-11-18T05:25:53.870Z,70.90
2017-11-18T05:28:21.450Z,64.05
2017-11-18T05:30:49.014Z,71.18
2017-11-18T05:33:16.604Z,74.93
2017-11-18T05:35:44.930Z,62.30
2017-11-18T05:38:12.542Z,79.20
2017-11-18T05:40:40.867Z,66.20
2017-11-18T05:43:08.436Z,74.60
2017-11-18T05:45:35.990Z,60.65
2017-11-18T05:48:03.560Z,68.68
2017-11-18T05:50:31.117Z,67.53
2017-11-18T05:52:58.718Z,67.00
2017-11-18T05:55:27.048Z,59.42
2017-11-18T05:57:54.696Z,62.60
2017-11-18T06:00:22.267Z,73.43
2017-11-18T06:02:49.836Z,60.92
2017-11-18T06:05:17.419Z,72.75
2017-11-18T06:07:44.988Z,64.95
2017-11-18T06:10:13.324Z,62.33
2017-11-18T06:12:40.907Z,62.83
2017-11-18T06:15:08.476Z,56.47
2017-11-18T06:17:36.079Z,59.13
2017-11-18T06:20:03.660Z,53.75
2017-11-18T06:22:31.229Z,58.87
2017-11-18T06:24:58.789Z,57.90
2017-11-18T06:27:26.403Z,60.55
2017-11-18T06:29:54.727Z,60.92
2017-11-18T06:32:22.379Z,57.00
2017-11-18T06:34:49.951Z,57.50
2017-11-18T06:37:17.527Z,63.95
2017-11-18T06:39:45.090Z,63.55
2017-11-18T06:42:12.639Z,60.78
2017-11-18T06:44:40.236Z,67.78
2017-11-18T06:47:08.556Z,64.82
2017-11-18T06:49:36.121Z,71.95
2017-11-18T06:52:03.781Z,60.10
2017-11-18T06:54:32.120Z,59.70
2017-11-18T06:57:00.455Z,73.85
2017-11-18T06:59:28.100Z,65.40
2017-11-18T07:01:55.686Z,60.12
2017-11-18T07:04:23.254Z,58.58
2017-11-18T07:06:50.833Z,61.78
2017-11-18T07:09:19.170Z,70.90
2017-11-18T07:11:46.752Z,74.12
2017-11-18T07:14:14.317Z,66.25
2017-11-18T07:16:41.884Z,61.75
2017-11-18T07:19:09.465Z,67.05
2017-11-18T07:21:37.786Z,63.85
2017-11-18T07:24:05.376Z,65.03
2017-11-18T07:26:33.031Z,70.05
2017-11-18T07:29:00.649Z,65.10
2017-11-18T07:31:28.937Z,68.78
2017-11-18T07:33:56.484Z,63.42
2017-11-18T07:36:24.070Z,74.45
2017-11-18T07:38:52.392Z,61.70
2017-11-18T07:41:21.253Z,70.70
2017-11-18T07:43:48.854Z,72.30
2017-11-18T07:46:16.809Z,67.32
2017-11-18T07:48:44.486Z,72.40
2017-11-18T07:51:12.093Z,86.10
2017-11-18T07:53:39.655Z,85.97
2017-11-18T07:56:07.206Z,82.47
2017-11-18T07:58:34.800Z,79.32
2017-11-18T08:01:02.415Z,81.10
2017-11-18T08:03:30.005Z,81.72
2017-11-18T08:05:58.365Z,83.50
2017-11-18T08:08:25.929Z,97.65
2017-11-18T08:10:53.483Z,87.57
2017-11-18T08:13:21.068Z,80.63
2017-11-18T08:15:49.385Z,84.35
2017-11-18T08:18:16.969Z,72.93
2017-11-18T08:20:44.534Z,103.75
2017-11-18T08:23:12.119Z,94.62
2017-11-18T08:25:40.471Z,110.05
2017-11-18T08:28:08.036Z,86.10
2017-11-18T08:30:35.882Z,78.10
2017-11-18T08:33:03.436Z,68.55
2017-11-18T08:35:31.017Z,79.18
2017-11-18T08:37:58.588Z,70.05
2017-11-18T08:40:26.158Z,68.35
2017-11-18T08:42:54.512Z,69.90
2017-11-18T08:45:22.108Z,68.68
2017-11-18T08:47:50.469Z,69.85
2017-11-18T08:50:18.056Z,69.93
2017-11-18T08:52:46.425Z,71.32
2017-11-18T08:55:14.771Z,65.80
2017-11-18T08:57:43.124Z,60.17
2017-11-18T09:00:10.728Z,71.30
2017-11-18T09:02:38.325Z,62.88
2017-11-18T09:05:05.921Z,65.50
2017-11-18T09:07:33.515Z,66.95
2017-11-18T09:10:01.101Z,68.47
2017-11-18T09:12:28.702Z,79.65
2017-11-18T09:14:56.293Z,62.27
2017-11-18T09:17:23.855Z,64.57
2017-11-18T09:19:51.407Z,61.40
2017-11-18T09:22:19.001Z,60.70
2017-11-18T09:24:46.578Z,68.30
2017-11-18T09:27:14.147Z,64.30
2017-11-18T09:29:41.706Z,60.73
2017-11-18T09:32:09.280Z,58.80
2017-11-18T09:34:36.853Z,57.53
2017-11-18T09:37:04.423Z,55.15
2017-11-18T09:39:31.985Z,63.50
2017-11-18T09:41:59.605Z,53.77
2017-11-18T09:44:28.377Z,49.15
2017-11-18T09:46:56.771Z,54.27
2017-11-18T09:49:24.350Z,53.53
2017-11-18T09:51:51.952Z,56.07
2017-11-18T09:54:19.559Z,52.55
2017-11-18T09:56:47.110Z,51.27
2017-11-18T09:59:15.648Z,53.90
2017-11-18T10:01:43.234Z,54.80
2017-11-18T10:04:11.589Z,53.70
2017-11-18T10:06:39.170Z,49.00
2017-11-18T10:09:07.514Z,53.87
2017-11-18T10:11:35.965Z,63.50
2017-11-18T10:14:03.544Z,57.17
2017-11-18T10:16:31.123Z,49.27
2017-11-18T10:18:58.686Z,67.53
2017-11-18T10:21:26.240Z,49.70
2017-11-18T10:23:53.804Z,48.23
2017-11-18T10:26:21.359Z,48.10
2017-11-18T10:28:48.930Z,47.67
2017-11-18T10:31:16.493Z,54.40
2017-11-18T10:33:44.069Z,48.13
2017-11-18T10:36:12.411Z,55.40
2017-11-18T10:38:39.958Z,42.77
2017-11-18T10:41:07.531Z,43.07
2017-11-18T10:43:35.095Z,45.80
2017-11-18T10:46:02.666Z,39.20
2017-11-18T10:48:30.218Z,48.07
2017-11-18T10:50:57.832Z,41.43
2017-11-18T10:53:25.414Z,45.60
2017-11-18T10:55:53.010Z,45.00
2017-11-18T10:58:20.585Z,44.30
2017-11-18T11:00:48.933Z,32.50
2017-11-18T11:03:16.525Z,35.77
2017-11-18T11:05:44.880Z,32.77
2017-11-18T11:08:12.491Z,31.00
2017-11-18T11:10:40.076Z,27.73
2017-11-18T11:13:07.656Z,28.73
2017-11-18T11:15:43.140Z,31.33
2017-11-18T11:18:10.754Z,27.80
2017-11-18T11:20:38.327Z,26.60
2017-11-18T11:23:05.909Z,27.83
2017-11-18T11:25:34.246Z,26.97
2017-11-18T11:28:01.815Z,29.60
2017-11-18T11:30:29.414Z,27.43
2017-11-18T11:32:57.738Z,26.17
2017-11-18T11:35:25.323Z,26.97
2017-11-18T11:37:52.958Z,29.60
2017-11-18T11:40:20.515Z,26.00
2017-11-18T11:42:48.067Z,23.83
2017-11-18T11:45:15.648Z,25.07
2017-11-18T11:47:43.201Z,20.37
2017-11-18T11:50:10.773Z,19.67
2017-11-18T11:52:38.414Z,21.10
2017-11-18T11:55:05.985Z,19.83
2017-11-18T11:57:33.544Z,20.70
2017-11-18T12:00:01.115Z,22.33
2017-11-18T12:02:28.669Z,15.83
2017-11-18T12:04:56.226Z,15.60
2017-11-18T12:07:23.853Z,15.23
2017-11-18T12:09:51.422Z,13.20
2017-11-18T12:12:19.002Z,14.87
2017-11-18T12:14:46.551Z,15.50
2017-11-18T12:17:14.162Z,15.60
2017-11-18T12:19:41.738Z,14.17
2017-11-18T12:22:10.085Z,12.40
2017-11-18T12:24:37.662Z,15.38
2017-11-18T12:27:06.742Z,13.38
2017-11-18T12:29:34.348Z,15.02
2017-11-18T12:32:01.940Z,11.63
2017-11-18T12:34:29.514Z,13.70
2017-11-18T12:36:57.072Z,13.43
2017-11-18T12:39:24.673Z,14.23
2017-11-18T12:41:53.023Z,13.03
2017-11-18T12:44:20.624Z,12.57
2017-11-18T12:46:48.941Z,13.23
2017-11-18T12:49:16.548Z,14.77
2017-11-18T12:51:45.043Z,15.80
2017-11-18T12:54:13.402Z,17.87
2017-11-18T12:56:40.967Z,14.80
2017-11-18T12:59:09.328Z,15.53
2017-11-18T13:01:36.936Z,12.03
2017-11-18T13:04:04.514Z,11.77
2017-11-18T13:06:32.100Z,14.03
2017-11-18T13:08:59.902Z,14.70
2017-11-18T13:11:27.513Z,16.37
2017-11-18T13:13:55.083Z,12.93
2017-11-18T13:16:22.652Z,14.60
2017-11-18T13:18:52.299Z,11.77
2017-11-18T13:21:20.633Z,13.77
2017-11-18T13:23:48.182Z,15.77
2017-11-18T13:26:15.769Z,14.80
2017-11-18T13:28:43.328Z,16.90
2017-11-18T13:31:10.924Z,19.40
2017-11-18T13:33:39.241Z,16.90
2017-11-18T13:36:06.823Z,12.43
2017-11-18T13:38:34.406Z,16.40
2017-11-18T13:41:02.030Z,22.23
2017-11-18T13:43:29.633Z,13.52
2017-11-18T13:45:57.228Z,17.13
2017-11-18T13:48:24.799Z,17.77
2017-11-18T13:50:53.114Z,23.07
2017-11-18T13:53:20.698Z,12.37
2017-11-18T13:55:48.316Z,17.50
2017-11-18T13:58:15.899Z,16.60
2017-11-18T14:00:44.307Z,16.17
2017-11-18T14:03:11.881Z,17.80
2017-11-18T14:05:39.477Z,17.50
2017-11-18T14:08:07.818Z,15.10
2017-11-18T14:10:35.404Z,17.00
2017-11-18T14:13:03.758Z,17.50
2017-11-18T14:15:31.365Z,17.53
2017-11-18T14:17:58.963Z,34.90
2017-11-18T14:20:26.563Z,17.10
2017-11-18T14:22:54.928Z,17.42
2017-11-18T14:25:22.502Z,23.90
2017-11-18T14:27:50.839Z,15.88
2017-11-18T14:30:18.447Z,14.27
2017-11-18T14:32:46.790Z,16.33
2017-11-18T14:35:15.163Z,15.97
2017-11-18T14:37:42.751Z,19.23
2017-11-18T14:40:10.337Z,21.80
2017-11-18T14:42:38.715Z,18.13
2017-11-18T14:45:06.316Z,18.08
2017-11-18T14:47:33.897Z,19.70
2017-11-18T14:50:01.510Z,21.95
2017-11-18T14:52:29.119Z,26.05
2017-11-18T14:54:56.798Z,33.15
2017-11-18T14:57:24.379Z,49.00
2017-11-18T14:59:52.035Z,29.50
2017-11-18T15:02:20.406Z,34.90
2017-11-18T15:04:48.805Z,42.30
2017-11-18T15:07:16.437Z,34.47
2017-11-18T15:09:44.153Z,31.95
2017-11-18T15:12:11.799Z,22.80
2017-11-18T15:14:45.123Z,22.83
2017-11-18T15:17:18.260Z,23.98
2017-11-18T15:19:52.361Z,20.80
2017-11-18T15:22:25.636Z,20.95
2017-11-18T15:24:59.020Z,24.50
2017-11-18T15:27:32.136Z,18.95
2017-11-18T15:30:16.539Z,27.37
2017-11-18T15:33:01.575Z,26.05
2017-11-18T15:35:31.687Z,18.08
2017-11-18T15:38:02.868Z,21.60
2017-11-18T15:40:31.223Z,18.98
2017-11-18T15:43:01.449Z,15.77
2017-11-18T15:45:29.827Z,21.95
2017-11-18T15:48:03.091Z,20.05
2017-11-18T15:50:36.300Z,15.95
2017-11-18T15:53:20.572Z,18.50
2017-11-18T15:55:53.836Z,22.60
2017-11-18T15:58:22.205Z,19.23
2017-11-18T16:00:55.409Z,19.70
2017-11-18T16:03:23.730Z,14.45
2017-11-18T16:05:52.092Z,16.10
2017-11-18T16:08:19.748Z,23.75
2017-11-18T16:10:47.346Z,16.95
2017-11-18T16:13:15.691Z,14.85
2017-11-18T16:15:43.269Z,19.85
2017-11-18T16:18:11.654Z,21.62
2017-11-18T16:20:40.041Z,17.87
2017-11-18T16:23:08.388Z,25.93
2017-11-18T16:25:35.979Z,21.10
2017-11-18T16:28:04.316Z,15.88
2017-11-18T16:30:31.901Z,21.42
2017-11-18T16:33:00.284Z,28.58
2017-11-18T16:35:28.652Z,33.35
2017-11-18T16:37:56.225Z,21.37
2017-11-18T16:40:23.812Z,25.67
2017-11-18T16:42:51.451Z,40.78
2017-11-18T16:45:19.023Z,29.40
2017-11-18T16:47:47.424Z,34.60
2017-11-18T16:50:15.001Z,47.42
2017-11-18T16:52:42.624Z,22.87
2017-11-18T16:55:10.241Z,20.73
2017-11-18T16:57:37.846Z,30.02
2017-11-18T17:00:06.209Z,26.50
2017-11-18T17:02:33.815Z,27.73
2017-11-18T17:05:01.425Z,33.20
2017-11-18T17:07:29.035Z,24.15
2017-11-18T17:09:56.620Z,28.75
2017-11-18T17:12:24.204Z,22.27
2017-11-18T17:14:51.839Z,27.05
2017-11-18T17:17:19.442Z,35.78
2017-11-18T17:19:47.852Z,19.62
2017-11-18T17:22:15.451Z,17.42
2017-11-18T17:24:43.071Z,20.70
2017-11-18T17:27:10.663Z,21.85
2017-11-18T17:29:38.252Z,20.33
2017-11-18T17:32:05.991Z,25.05
2017-11-18T17:34:33.582Z,21.37
2017-11-18T17:37:01.171Z,21.60
2017-11-18T17:39:28.766Z,30.73
2017-11-18T17:41:56.360Z,29.10
2017-11-18T17:44:23.981Z,18.95
2017-11-18T17:46:51.586Z,25.73
2017-11-18T17:49:19.337Z,23.00
2017-11-18T17:51:46.940Z,22.27
2017-11-18T17:54:14.569Z,27.75
2017-11-18T17:56:42.399Z,26.15
2017-11-18T17:59:10.163Z,26.27
2017-11-18T18:01:37.807Z,24.83
2017-11-18T18:04:05.411Z,19.80
2017-11-18T18:06:33.306Z,19.95
2017-11-18T18:09:01.986Z,19.90
2017-11-18T18:11:29.771Z,29.98
2017-11-18T18:13:58.144Z,24.02
2017-11-18T18:16:26.509Z,27.67
2017-11-18T18:18:54.936Z,29.95
2017-11-18T18:21:23.232Z,29.12
2017-11-18T18:23:51.318Z,23.83
2017-11-18T18:26:18.925Z,31.67
2017-11-18T18:28:46.536Z,28.90
2017-11-18T18:31:14.336Z,24.77
2017-11-18T18:33:42.979Z,27.02
2017-11-18T18:36:10.918Z,22.08
2017-11-18T18:38:38.480Z,29.40
2017-11-18T18:41:06.292Z,53.42
2017-11-18T18:43:34.705Z,31.50
2017-11-18T18:46:03.318Z,36.65
2017-11-18T18:48:31.164Z,30.58
2017-11-18T18:50:59.115Z,28.23
2017-11-18T18:53:26.819Z,34.75
2017-11-18T18:55:54.556Z,34.05
2017-11-18T18:58:23.048Z,29.00
2017-11-18T19:00:50.869Z,33.85
2017-11-18T19:03:18.647Z,35.80
2017-11-18T19:05:46.697Z,28.08
2017-11-18T19:08:14.691Z,26.60
2017-11-18T19:10:42.349Z,29.70
2017-11-18T19:13:10.634Z,24.83
2017-11-18T19:15:38.319Z,26.20
2017-11-18T19:18:05.971Z,23.02
2017-11-18T19:20:34.373Z,63.50
2017-11-18T19:23:01.948Z,32.35
2017-11-18T19:25:29.693Z,35.88
2017-11-18T19:27:57.745Z,62.47
2017-11-18T19:30:25.370Z,34.70
2017-11-18T19:32:52.986Z,27.95
2017-11-18T19:35:20.725Z,34.33
2017-11-18T19:37:49.001Z,25.48
2017-11-18T19:40:16.861Z,25.62
2017-11-18T19:42:45.236Z,23.48
2017-11-18T19:45:12.825Z,37.00
2017-11-18T19:47:41.208Z,22.52
2017-11-18T19:50:09.993Z,29.02
2017-11-18T19:52:38.023Z,32.08
2017-11-18T19:55:05.633Z,24.50
2017-11-18T19:57:33.974Z,25.33
2017-11-18T20:00:01.581Z,25.02
2017-11-18T20:02:29.146Z,28.17
2017-11-18T20:04:56.870Z,19.35
2017-11-18T20:07:24.489Z,24.55
2017-11-18T20:09:52.160Z,21.40
2017-11-18T20:12:19.869Z,55.08
2017-11-18T20:14:48.318Z,35.08
2017-11-18T20:17:15.940Z,18.70
2017-11-18T20:19:43.532Z,27.52
2017-11-18T20:22:11.299Z,30.37
2017-11-18T20:24:39.064Z,23.92
2017-11-18T20:27:06.673Z,20.75
2017-11-18T20:29:35.019Z,17.67
2017-11-18T20:32:02.731Z,16.40
2017-11-18T20:34:30.412Z,18.95
2017-11-18T20:36:58.117Z,26.30
2017-11-18T20:39:25.694Z,21.73
2017-11-18T20:41:53.374Z,19.62
2017-11-18T20:44:21.086Z,22.35
2017-11-18T20:46:48.787Z,17.35
2017-11-18T20:49:16.413Z,26.58
2017-11-18T20:51:44.011Z,23.05
2017-11-18T20:54:12.376Z,21.42
2017-11-18T20:56:39.998Z,19.40
2017-11-18T20:59:07.984Z,23.70
2017-11-18T21:01:36.603Z,19.75
2017-11-18T21:04:05.150Z,20.88
2017-11-18T21:06:32.759Z,16.33
2017-11-18T21:09:01.127Z,19.95
2017-11-18T21:11:28.700Z,20.00
2017-11-18T21:13:57.040Z,18.73
2017-11-18T21:16:24.616Z,17.98
2017-11-18T21:18:52.183Z,22.58
2017-11-18T21:21:19.773Z,19.45
2017-11-18T21:23:48.123Z,15.85
2017-11-18T21:26:15.723Z,19.40
2017-11-18T21:28:43.310Z,18.60
2017-11-18T21:31:10.890Z,17.25
2017-11-18T21:33:38.460Z,22.02
2017-11-18T21:36:06.053Z,20.00
2017-11-18T21:38:34.396Z,22.23
2017-11-18T21:41:01.999Z,17.17
2017-11-18T21:43:29.606Z,19.77
2017-11-18T21:45:57.214Z,19.80
2017-11-18T21:48:25.553Z,16.98
2017-11-18T21:50:53.103Z,17.33
2017-11-18T21:53:23.524Z,20.02
2017-11-18T21:55:51.096Z,17.67
2017-11-18T21:58:18.683Z,21.05
2017-11-18T22:00:47.046Z,21.27
2017-11-18T22:03:14.644Z,19.35
2017-11-18T22:05:42.979Z,18.37
2017-11-18T22:08:10.586Z,22.80
2017-11-18T22:10:38.940Z,21.08
2017-11-18T22:13:06.518Z,24.05
2017-11-18T22:15:34.846Z,14.30
2017-11-18T22:18:02.419Z,17.75
2017-11-18T22:20:29.998Z,16.73
2017-11-18T22:22:57.575Z,18.12
2017-11-18T22:25:27.694Z,21.58
2017-11-18T22:27:56.041Z,17.58
2017-11-18T22:30:23.721Z,17.05
2017-11-18T22:32:52.043Z,13.98
2017-11-18T22:35:19.662Z,16.65
2017-11-18T22:37:47.251Z,19.17
2017-11-18T22:40:14.805Z,23.77
2017-11-18T22:42:43.144Z,19.70
2017-11-18T22:45:10.710Z,20.92
2017-11-18T22:47:38.310Z,15.63
2017-11-18T22:50:06.636Z,17.52
2017-11-18T22:52:34.213Z,25.48
2017-11-18T22:55:01.793Z,18.33
2017-11-18T22:57:30.143Z,21.95
2017-11-18T22:59:57.757Z,19.80
2017-11-18T23:02:25.349Z,16.92
2017-11-18T23:04:52.946Z,15.23
2017-11-18T23:07:20.539Z,16.35
2017-11-18T23:09:48.859Z,20.20
2017-11-18T23:12:16.434Z,17.45
2017-11-18T23:14:44.015Z,23.23
2017-11-18T23:17:12.349Z,15.32
2017-11-18T23:19:39.902Z,20.58
2017-11-18T23:22:07.488Z,16.45
2017-11-18T23:24:35.066Z,18.83
2017-11-18T23:27:03.421Z,18.55
2017-11-18T23:29:31.004Z,24.20
2017-11-18T23:31:58.577Z,16.55
2017-11-18T23:34:26.936Z,15.45
2017-11-18T23:36:54.569Z,18.62
2017-11-18T23:39:22.239Z,18.10
2017-11-18T23:41:49.821Z,19.23
2017-11-18T23:44:17.372Z,21.80
2017-11-18T23:46:44.958Z,19.98
2017-11-18T23:49:13.961Z,31.35
2017-11-18T23:51:42.309Z,21.55
2017-11-18T23:54:09.949Z,20.20
2017-11-18T23:56:37.525Z,20.67
2017-11-18T23:59:05.065Z,26.60
